Time;durP1;ratioP1;P1;durP2;ratioP2;P2;SDS_P1;SDS_P2;PMS_P1;PMS_P2;Temp;Humidity;BMP_temperature;BMP_pressure;BME280_temperature;BME280_humidity;BME280_pressure;Samples;Min_cycle;Max_cycle;Signal;HPM_P1;HPM_P2
2021/08/07 00:01:31;;;;;;;13.88;4.95;;;16.30;99.90;;;;;;4136519;28;20038;-74
2021/08/07 00:03:32;;;;;;;9.95;4.10;;;16.20;99.90;;;;;;4140788;28;20038;-73
2021/08/07 00:05:32;;;;;;;6.65;4.35;;;16.20;99.90;;;;;;4139086;28;20040;-73
2021/08/07 00:07:34;;;;;;;8.93;4.68;;;16.20;99.90;;;;;;4133285;28;20031;-73
2021/08/07 00:09:35;;;;;;;14.20;4.65;;;16.20;99.90;;;;;;4134703;28;20049;-73
2021/08/07 00:11:35;;;;;;;11.13;4.28;;;16.30;99.90;;;;;;4134063;28;20042;-73
2021/08/07 00:13:37;;;;;;;8.02;4.35;;;16.20;99.90;;;;;;4135699;28;20029;-73
2021/08/07 00:15:37;;;;;;;8.93;4.07;;;16.20;99.90;;;;;;4133652;28;20038;-72
2021/08/07 00:17:38;;;;;;;6.25;3.95;;;16.20;99.90;;;;;;4135043;28;20378;-72
2021/08/07 00:19:39;;;;;;;9.77;4.35;;;16.20;99.90;;;;;;4131934;28;20512;-72
2021/08/07 00:21:39;;;;;;;6.40;4.50;;;16.20;99.90;;;;;;4135934;28;20109;-73
2021/08/07 00:23:40;;;;;;;7.50;3.80;;;16.20;99.90;;;;;;4140657;28;20409;-72
2021/08/07 00:25:41;;;;;;;7.55;4.07;;;16.20;99.90;;;;;;4133041;28;20039;-72
2021/08/07 00:27:42;;;;;;;9.32;4.10;;;16.30;99.90;;;;;;4144741;28;20038;-73
2021/08/07 00:29:42;;;;;;;8.35;3.83;;;16.20;99.90;;;;;;4136626;28;20035;-73
2021/08/07 00:31:43;;;;;;;8.23;4.60;;;16.20;99.90;;;;;;4135410;28;20057;-72
2021/08/07 00:33:44;;;;;;;10.65;4.35;;;16.10;99.90;;;;;;4136241;28;20111;-73
2021/08/07 00:35:46;;;;;;;7.35;3.75;;;16.20;99.90;;;;;;4135534;28;20054;-73
2021/08/07 00:37:46;;;;;;;6.70;3.50;;;16.30;99.90;;;;;;4132946;28;20042;-73
2021/08/07 00:39:47;;;;;;;6.63;3.30;;;16.30;99.90;;;;;;4134696;28;20113;-73
2021/08/07 00:41:48;;;;;;;10.27;4.43;;;16.30;99.90;;;;;;4139994;28;20069;-73
2021/08/07 00:43:48;;;;;;;5.80;3.78;;;16.40;99.90;;;;;;4137216;28;20366;-73
2021/08/07 00:45:49;;;;;;;6.68;3.80;;;16.30;99.90;;;;;;4137611;28;20093;-72
2021/08/07 00:47:50;;;;;;;7.78;4.75;;;16.30;99.90;;;;;;4139423;28;20437;-72
2021/08/07 00:49:50;;;;;;;11.23;4.53;;;16.40;99.90;;;;;;4131126;28;20030;-73
2021/08/07 00:51:51;;;;;;;8.32;3.80;;;16.40;99.90;;;;;;4133091;28;20034;-72
2021/08/07 00:53:51;;;;;;;7.40;3.75;;;16.50;99.90;;;;;;4131363;28;20034;-74
2021/08/07 00:55:52;;;;;;;8.57;3.70;;;16.50;99.90;;;;;;4149240;28;20057;-73
2021/08/07 00:57:53;;;;;;;9.65;4.95;;;16.40;99.90;;;;;;4135946;28;20022;-72
2021/08/07 00:59:53;;;;;;;5.97;3.55;;;16.40;99.90;;;;;;4135342;28;20034;-73
2021/08/07 01:01:58;;;;;;;8.48;4.00;;;16.40;99.90;;;;;;4141623;28;20052;-73
2021/08/07 01:03:58;;;;;;;8.57;3.58;;;16.40;99.90;;;;;;4138781;28;20517;-74
2021/08/07 01:06:11;;;;;;;7.07;3.33;;;16.50;99.90;;;;;;4133316;28;20033;-72
2021/08/07 01:08:23;;;;;;;7.47;3.80;;;16.60;99.90;;;;;;4132216;28;20038;-71
2021/08/07 01:10:41;;;;;;;7.38;3.80;;;16.70;99.90;;;;;;4136366;28;20038;-71
2021/08/07 01:13:05;;;;;;;10.10;3.85;;;16.60;99.90;;;;;;4141458;28;20042;-71
2021/08/07 01:15:09;;;;;;;7.63;3.33;;;16.60;99.90;;;;;;4133779;28;20422;-71
2021/08/07 01:17:13;;;;;;;6.95;3.80;;;16.50;99.90;;;;;;4135136;28;20030;-73
2021/08/07 01:19:17;;;;;;;7.15;4.07;;;16.50;99.90;;;;;;4135101;28;20054;-72
2021/08/07 01:21:20;;;;;;;;;;;16.40;99.90;;;;;;4140849;28;20053;-72
2021/08/07 01:23:20;;;;;;;7.10;3.72;;;16.40;99.90;;;;;;4136232;28;20289;-72
2021/08/07 01:25:23;;;;;;;8.70;3.97;;;16.50;99.90;;;;;;4133759;28;20038;-72
2021/08/07 01:27:28;;;;;;;9.38;4.10;;;16.50;99.90;;;;;;4131864;28;20034;-72
2021/08/07 01:29:29;;;;;;;8.35;3.60;;;16.50;99.90;;;;;;4132471;28;20042;-73
2021/08/07 01:31:31;;;;;;;12.35;4.70;;;16.50;99.90;;;;;;4132077;28;20076;-73
2021/08/07 01:33:33;;;;;;;11.45;4.18;;;16.50;99.90;;;;;;4134526;28;20117;-73
2021/08/07 01:35:33;;;;;;;8.27;3.70;;;16.40;99.90;;;;;;4133908;28;20058;-73
2021/08/07 01:37:34;;;;;;;8.93;4.55;;;16.50;99.90;;;;;;4143078;28;20064;-73
2021/08/07 01:39:35;;;;;;;10.20;4.18;;;16.50;99.90;;;;;;4135182;28;20033;-73
2021/08/07 01:41:36;;;;;;;8.48;4.47;;;16.50;99.90;;;;;;4132305;28;20367;-72
2021/08/07 01:43:37;;;;;;;8.90;4.45;;;16.30;99.90;;;;;;4136588;28;20034;-73
2021/08/07 01:45:38;;;;;;;8.05;3.63;;;16.20;99.90;;;;;;4134423;28;20488;-72
2021/08/07 01:47:43;;;;;;;8.45;4.43;;;16.00;99.90;;;;;;4145281;28;20057;-72
2021/08/07 01:49:58;;;;;;;10.88;4.70;;;15.90;99.90;;;;;;4135100;28;20089;-73
2021/08/07 01:52:03;;;;;;;9.75;4.85;;;16.00;99.90;;;;;;4131182;28;20046;-72
2021/08/07 01:54:05;;;;;;;11.30;4.55;;;15.90;99.90;;;;;;4132255;28;20394;-73
2021/08/07 01:56:37;;;;;;;10.67;5.10;;;15.80;99.90;;;;;;4133695;28;20031;-73
2021/08/07 01:58:51;;;;;;;12.02;4.93;;;15.70;99.90;;;;;;4137332;28;20048;-73
2021/08/07 02:00:53;;;;;;;10.70;5.28;;;15.60;99.90;;;;;;4136791;28;20044;-73
2021/08/07 02:02:54;;;;;;;9.90;4.53;;;15.60;99.90;;;;;;4145193;28;20057;-73
2021/08/07 02:04:57;;;;;;;11.70;4.65;;;15.50;99.90;;;;;;4140260;28;20034;-72
2021/08/07 02:06:58;;;;;;;10.05;4.95;;;15.50;99.90;;;;;;4141118;28;20031;-71
2021/08/07 02:09:01;;;;;;;11.55;5.63;;;15.40;99.90;;;;;;4135458;28;20485;-71
2021/08/07 02:11:02;;;;;;;14.48;5.15;;;15.30;99.90;;;;;;4130769;28;20038;-72
2021/08/07 02:13:05;;;;;;;10.05;5.10;;;15.20;99.90;;;;;;4138106;28;20030;-72
2021/08/07 02:15:06;;;;;;;;;;;15.10;99.90;;;;;;4131393;28;20398;-70
2021/08/07 02:17:07;;;;;;;13.10;6.28;;;15.00;99.90;;;;;;4133622;28;19910;-71
2021/08/07 02:19:08;;;;;;;13.95;5.97;;;14.90;99.90;;;;;;4132643;28;20042;-71
2021/08/07 02:21:11;;;;;;;11.68;5.95;;;14.90;99.90;;;;;;4135490;28;20033;-71
2021/08/07 02:23:14;;;;;;;11.60;5.70;;;14.80;99.90;;;;;;4133909;28;20109;-76
2021/08/07 02:25:15;;;;;;;13.25;6.28;;;14.70;99.90;;;;;;4135121;28;20480;-77
2021/08/07 02:27:16;;;;;;;11.65;5.30;;;14.70;99.90;;;;;;4136037;28;20034;-75
2021/08/07 02:29:17;;;;;;;11.32;6.35;;;14.70;99.90;;;;;;4134150;28;20101;-76
2021/08/07 02:31:19;;;;;;;10.57;6.20;;;14.60;99.90;;;;;;4134859;28;20541;-75
2021/08/07 02:33:21;;;;;;;14.20;6.57;;;;;;;;;;4132689;28;20030;-77
2021/08/07 02:35:22;;;;;;;12.60;6.00;;;14.40;99.90;;;;;;4132428;28;20067;-76
2021/08/07 02:37:24;;;;;;;12.20;6.90;;;14.40;99.90;;;;;;4130139;28;20034;-77
2021/08/07 02:39:26;;;;;;;14.35;7.00;;;14.40;99.90;;;;;;4133217;28;20498;-76
2021/08/07 02:41:28;;;;;;;12.40;6.27;;;14.40;99.90;;;;;;4146450;28;20041;-76
2021/08/07 02:43:31;;;;;;;17.80;6.50;;;14.40;99.90;;;;;;4133009;28;20505;-76
2021/08/07 02:45:32;;;;;;;9.98;6.25;;;14.50;99.90;;;;;;4131840;28;20026;-76
2021/08/07 02:47:34;;;;;;;17.70;6.13;;;14.50;99.90;;;;;;4136020;28;20030;-76
2021/08/07 02:49:35;;;;;;;11.85;7.72;;;14.40;99.90;;;;;;4130318;28;20046;-76
2021/08/07 02:51:37;;;;;;;16.13;6.40;;;14.40;99.90;;;;;;4142159;28;20041;-76
2021/08/07 02:53:38;;;;;;;10.02;6.50;;;14.40;99.90;;;;;;4131135;28;20061;-76
2021/08/07 02:55:39;;;;;;;14.05;7.38;;;14.40;99.90;;;;;;4131270;28;20042;-77
2021/08/07 02:57:40;;;;;;;12.10;8.15;;;14.50;99.90;;;;;;4130877;28;20030;-76
2021/08/07 02:59:41;;;;;;;17.10;7.75;;;14.50;99.90;;;;;;4133844;28;20038;-77
2021/08/07 03:01:42;;;;;;;15.55;8.38;;;14.50;99.90;;;;;;4142144;28;20418;-76
2021/08/07 03:03:42;;;;;;;15.65;8.65;;;14.50;99.90;;;;;;4131412;28;20405;-76
2021/08/07 03:05:43;;;;;;;13.55;8.15;;;14.50;99.90;;;;;;4130226;28;20433;-76
2021/08/07 03:07:44;;;;;;;17.42;9.43;;;14.60;99.90;;;;;;4133120;28;20030;-77
2021/08/07 03:09:44;;;;;;;14.70;9.13;;;14.70;99.90;;;;;;4131877;28;20069;-76
2021/08/07 03:11:45;;;;;;;18.50;10.45;;;14.70;99.90;;;;;;4131503;28;20065;-76
2021/08/07 03:13:46;;;;;;;14.43;8.25;;;14.80;99.90;;;;;;4131588;28;20038;-76
2021/08/07 03:15:46;;;;;;;14.05;8.52;;;14.80;99.90;;;;;;4134929;28;20093;-76
2021/08/07 03:17:47;;;;;;;20.52;9.85;;;14.90;99.90;;;;;;4138286;28;20057;-75
2021/08/07 03:19:47;;;;;;;16.55;9.65;;;14.70;99.90;;;;;;4133397;28;20506;-76
2021/08/07 03:21:48;;;;;;;18.65;9.82;;;14.70;99.90;;;;;;4132082;28;20038;-76
2021/08/07 03:23:49;;;;;;;20.20;9.23;;;14.70;99.90;;;;;;4137474;28;20574;-77
2021/08/07 03:25:50;;;;;;;16.30;10.05;;;14.70;99.90;;;;;;4134512;28;20624;-76
2021/08/07 03:27:51;;;;;;;17.17;9.95;;;14.70;99.90;;;;;;4140577;28;20034;-76
2021/08/07 03:29:52;;;;;;;20.15;10.77;;;14.70;99.90;;;;;;4132950;28;20113;-77
2021/08/07 03:31:52;;;;;;;18.27;9.88;;;14.80;99.90;;;;;;4132649;28;20496;-76
2021/08/07 03:33:53;;;;;;;12.70;10.02;;;14.90;99.90;;;;;;4135711;28;20058;-76
2021/08/07 03:35:53;;;;;;;16.38;10.75;;;14.80;99.90;;;;;;4130583;28;20513;-76
2021/08/07 03:37:54;;;;;;;18.35;9.70;;;14.90;99.90;;;;;;4135463;28;20488;-77
2021/08/07 03:39:54;;;;;;;16.48;9.90;;;14.90;99.90;;;;;;4151204;28;20103;-76
2021/08/07 03:41:55;;;;;;;17.15;10.20;;;15.00;99.90;;;;;;4134768;28;20474;-76
2021/08/07 03:43:56;;;;;;;20.00;11.13;;;15.00;99.90;;;;;;4132837;28;20038;-76
2021/08/07 03:45:56;;;;;;;17.77;10.57;;;15.00;99.90;;;;;;4133271;28;20030;-76
2021/08/07 03:47:58;;;;;;;17.27;10.90;;;15.00;99.90;;;;;;4142068;28;20088;-77
2021/08/07 03:49:58;;;;;;;15.20;9.38;;;15.10;99.90;;;;;;4132747;28;20425;-76
2021/08/07 03:51:59;;;;;;;15.00;8.77;;;15.20;99.90;;;;;;4132675;28;20046;-76
2021/08/07 03:53:59;;;;;;;16.23;9.10;;;15.20;99.90;;;;;;4133683;28;20093;-76
2021/08/07 03:56:00;;;;;;;14.52;7.78;;;15.30;99.90;;;;;;4136199;28;20378;-74
2021/08/07 03:58:01;;;;;;;17.33;7.93;;;15.40;99.90;;;;;;4130446;28;20034;-74
2021/08/07 04:00:02;;;;;;;13.20;7.88;;;15.40;99.90;;;;;;4130713;28;20366;-76
2021/08/07 04:02:02;;;;;;;16.52;8.07;;;15.40;99.90;;;;;;4133565;28;20134;-76
2021/08/07 04:04:04;;;;;;;14.30;8.15;;;15.40;99.90;;;;;;4137953;28;20038;-76
2021/08/07 04:06:05;;;;;;;12.23;7.30;;;15.40;99.90;;;;;;4145876;28;20034;-76
2021/08/07 04:08:11;;;;;;;15.50;8.85;;;15.40;99.90;;;;;;4140474;28;20475;-77
2021/08/07 04:10:13;;;;;;;10.30;7.93;;;15.40;99.90;;;;;;4139467;28;20057;-77
2021/08/07 04:12:14;;;;;;;19.07;9.10;;;15.30;99.90;;;;;;4142171;28;20524;-77
2021/08/07 04:14:14;;;;;;;12.23;8.40;;;15.30;99.90;;;;;;4134905;28;20026;-75
2021/08/07 04:16:15;;;;;;;14.15;8.30;;;15.20;99.90;;;;;;4140075;28;20472;-77
2021/08/07 04:18:16;;;;;;;14.13;8.43;;;15.10;99.90;;;;;;4133289;28;20056;-77
2021/08/07 04:20:17;;;;;;;13.07;8.38;;;15.00;99.90;;;;;;4138102;28;20038;-77
2021/08/07 04:22:18;;;;;;;15.02;10.40;;;15.00;99.90;;;;;;4132676;28;20088;-77
2021/08/07 04:24:19;;;;;;;20.23;9.63;;;15.00;99.90;;;;;;4135330;28;20038;-77
2021/08/07 04:26:19;;;;;;;18.63;9.82;;;14.90;99.90;;;;;;4133297;28;20041;-77
2021/08/07 04:28:20;;;;;;;18.50;9.40;;;14.90;99.90;;;;;;4144036;28;20038;-77
2021/08/07 04:30:21;;;;;;;18.48;9.02;;;14.90;99.90;;;;;;4139157;28;20207;-76
2021/08/07 04:32:22;;;;;;;17.58;9.18;;;14.90;99.90;;;;;;4136412;28;20044;-77
2021/08/07 04:34:23;;;;;;;12.63;9.20;;;15.00;99.90;;;;;;4138009;28;20037;-77
2021/08/07 04:36:24;;;;;;;16.52;8.30;;;14.90;99.90;;;;;;4135104;28;20039;-73
2021/08/07 04:38:24;;;;;;;13.93;7.78;;;15.00;99.90;;;;;;4140692;28;20513;-77
2021/08/07 04:40:27;;;;;;;13.43;7.95;;;15.10;99.90;;;;;;4151686;28;20075;-77
2021/08/07 04:42:28;;;;;;;15.15;9.23;;;15.00;99.90;;;;;;4142045;28;20026;-77
2021/08/07 04:44:29;;;;;;;17.00;8.40;;;15.00;99.90;;;;;;4137918;28;20045;-77
2021/08/07 04:46:30;;;;;;;12.93;8.07;;;15.00;99.90;;;;;;4138149;28;20072;-77
2021/08/07 04:48:30;;;;;;;14.90;8.35;;;15.00;99.90;;;;;;4140645;28;20033;-77
2021/08/07 04:50:34;;;;;;;14.82;9.25;;;15.00;99.90;;;;;;4137544;28;20068;-77
2021/08/07 04:52:34;;;;;;;;;;;15.00;99.90;;;;;;4132355;28;20166;-77
2021/08/07 04:54:35;;;;;;;15.52;7.80;;;14.90;99.90;;;;;;4132641;28;19964;-76
2021/08/07 04:56:36;;;;;;;15.55;7.93;;;14.90;99.90;;;;;;4142477;28;20034;-77
2021/08/07 04:58:37;;;;;;;19.80;9.25;;;14.90;99.90;;;;;;4133759;28;20137;-77
2021/08/07 05:00:38;;;;;;;16.02;8.50;;;14.90;99.90;;;;;;4141741;28;20034;-77
2021/08/07 05:02:40;;;;;;;16.20;9.63;;;14.90;99.90;;;;;;4134096;28;20049;-77
2021/08/07 05:04:40;;;;;;;15.95;8.65;;;14.90;99.90;;;;;;4132246;28;20034;-75
2021/08/07 05:06:44;;;;;;;17.33;9.20;;;14.90;99.90;;;;;;4133273;28;20031;-77
2021/08/07 05:08:44;;;;;;;;;;;14.90;99.90;;;;;;4132641;28;20118;-77
2021/08/07 05:10:45;;;;;;;12.77;8.65;;;14.90;99.90;;;;;;4137141;28;19914;-78
2021/08/07 05:12:46;;;;;;;16.15;8.13;;;14.90;99.90;;;;;;4132316;28;20119;-78
2021/08/07 05:14:46;;;;;;;19.90;7.63;;;14.90;99.90;;;;;;4133884;28;20068;-78
2021/08/07 05:16:47;;;;;;;17.33;8.27;;;15.10;99.90;;;;;;4145661;28;20046;-78
2021/08/07 05:18:47;;;;;;;14.10;8.70;;;15.00;99.90;;;;;;4143688;28;20500;-78
2021/08/07 05:20:48;;;;;;;13.52;7.82;;;15.10;99.90;;;;;;4135382;28;20026;-77
2021/08/07 05:22:48;;;;;;;15.88;7.50;;;15.10;99.90;;;;;;4139626;28;20042;-78
2021/08/07 05:24:50;;;;;;;16.52;7.80;;;15.00;99.90;;;;;;4132060;28;20045;-78
2021/08/07 05:26:51;;;;;;;15.45;7.90;;;15.00;99.90;;;;;;4134537;28;20046;-77
2021/08/07 05:28:52;;;;;;;15.90;7.13;;;15.00;99.90;;;;;;4148946;28;20058;-78
2021/08/07 05:30:52;;;;;;;12.45;7.32;;;15.00;99.90;;;;;;4135789;28;20382;-77
2021/08/07 05:32:53;;;;;;;12.63;7.57;;;15.00;99.90;;;;;;4147145;28;20129;-78
2021/08/07 05:34:54;;;;;;;12.82;7.45;;;15.00;99.90;;;;;;4131860;28;20065;-77
2021/08/07 05:36:54;;;;;;;14.40;7.43;;;15.00;99.90;;;;;;4136116;28;20061;-78
2021/08/07 05:38:55;;;;;;;14.02;6.45;;;15.00;99.90;;;;;;4132725;28;20050;-77
2021/08/07 05:40:56;;;;;;;10.57;6.22;;;15.00;99.90;;;;;;4134914;28;20022;-77
2021/08/07 05:42:57;;;;;;;14.93;6.93;;;15.00;99.90;;;;;;4132509;28;20045;-77
2021/08/07 05:44:57;;;;;;;12.20;6.28;;;15.10;99.90;;;;;;4132402;28;20039;-77
2021/08/07 05:46:58;;;;;;;14.30;6.82;;;15.10;99.90;;;;;;4134224;28;20426;-78
2021/08/07 05:48:59;;;;;;;13.52;6.40;;;15.10;99.90;;;;;;4137207;28;20606;-75
2021/08/07 05:51:00;;;;;;;12.60;5.70;;;15.20;99.90;;;;;;4138875;28;20038;-77
2021/08/07 05:53:01;;;;;;;9.65;5.82;;;15.30;99.90;;;;;;4147915;28;20386;-77
2021/08/07 05:55:03;;;;;;;10.23;5.53;;;15.30;99.90;;;;;;4131389;28;20077;-78
2021/08/07 05:57:03;;;;;;;8.30;5.15;;;15.40;99.90;;;;;;4137190;28;20027;-77
2021/08/07 05:59:04;;;;;;;12.23;5.22;;;15.50;99.90;;;;;;4131152;28;20120;-76
2021/08/07 06:01:06;;;;;;;10.18;6.15;;;15.60;99.90;;;;;;4135168;28;20129;-77
2021/08/07 06:03:07;;;;;;;11.95;5.55;;;15.50;99.90;;;;;;4135605;28;20034;-77
2021/08/07 06:05:08;;;;;;;10.30;5.90;;;15.70;99.90;;;;;;4133732;28;20046;-74
2021/08/07 06:07:08;;;;;;;12.63;5.75;;;15.70;99.90;;;;;;4134848;28;20029;-77
2021/08/07 06:09:09;;;;;;;14.55;7.03;;;15.70;99.90;;;;;;4135819;28;20129;-77
2021/08/07 06:11:10;;;;;;;10.13;6.28;;;16.00;99.90;;;;;;4135899;28;20027;-78
2021/08/07 06:13:10;;;;;;;8.88;5.85;;;15.90;99.90;;;;;;4131552;28;20034;-77
2021/08/07 06:15:11;;;;;;;9.93;5.63;;;15.90;99.90;;;;;;4134728;28;20034;-75
2021/08/07 06:17:12;;;;;;;11.00;5.70;;;16.00;99.90;;;;;;4136613;28;20043;-77
2021/08/07 06:19:13;;;;;;;10.50;5.75;;;15.90;99.90;;;;;;4139457;28;20033;-77
2021/08/07 06:21:13;;;;;;;9.32;5.32;;;16.10;99.90;;;;;;4133061;28;20562;-77
2021/08/07 06:23:14;;;;;;;9.70;6.22;;;16.20;99.90;;;;;;4122787;28;20042;-77
2021/08/07 06:25:15;;;;;;;8.45;5.15;;;16.30;99.90;;;;;;4134162;28;20100;-77
2021/08/07 06:27:16;;;;;;;13.10;5.18;;;16.30;99.90;;;;;;4135870;28;20042;-77
2021/08/07 06:29:16;;;;;;;7.55;5.70;;;16.40;99.90;;;;;;4133342;28;20069;-77
2021/08/07 06:31:17;;;;;;;11.05;4.97;;;16.40;99.90;;;;;;4136512;28;20529;-77
2021/08/07 06:33:18;;;;;;;6.07;4.32;;;16.20;99.90;;;;;;4132880;28;20402;-77
2021/08/07 06:35:19;;;;;;;9.20;5.07;;;16.50;99.90;;;;;;4134255;28;20089;-77
2021/08/07 06:37:19;;;;;;;11.63;4.82;;;16.20;99.90;;;;;;4138077;28;20099;-77
2021/08/07 06:39:20;;;;;;;9.32;4.50;;;16.70;99.90;;;;;;4135854;28;20057;-77
2021/08/07 06:41:21;;;;;;;8.65;5.55;;;17.10;99.90;;;;;;4130077;28;22356;-77
2021/08/07 06:43:21;;;;;;;7.32;4.07;;;17.20;99.90;;;;;;4139765;28;20081;-77
2021/08/07 06:45:22;;;;;;;11.55;4.95;;;17.20;99.90;;;;;;4130304;28;20067;-77
2021/08/07 06:47:23;;;;;;;12.13;5.72;;;17.20;99.90;;;;;;4137970;28;20038;-77
2021/08/07 06:49:23;;;;;;;12.25;4.68;;;17.20;99.90;;;;;;4142281;28;20546;-77
2021/08/07 06:51:24;;;;;;;11.35;4.10;;;17.20;99.90;;;;;;4133912;28;20402;-77
2021/08/07 06:53:25;;;;;;;7.35;4.03;;;17.20;99.90;;;;;;4140394;28;20034;-77
2021/08/07 06:55:26;;;;;;;7.72;4.10;;;17.20;99.90;;;;;;4129678;28;20092;-77
2021/08/07 06:57:26;;;;;;;7.80;4.13;;;17.30;99.90;;;;;;4128328;28;20057;-74
2021/08/07 06:59:27;;;;;;;8.13;3.88;;;17.30;99.90;;;;;;4128213;28;20078;-77
2021/08/07 07:01:28;;;;;;;8.13;4.18;;;17.40;99.90;;;;;;4129086;28;20057;-74
2021/08/07 07:03:28;;;;;;;6.95;3.72;;;17.30;99.90;;;;;;4139329;28;20108;-75
2021/08/07 07:05:32;;;;;;;7.25;3.85;;;17.30;99.90;;;;;;4151683;28;20030;-77
2021/08/07 07:07:32;;;;;;;6.88;3.53;;;17.30;99.90;;;;;;4131488;28;20038;-77
2021/08/07 07:09:33;;;;;;;7.55;4.00;;;17.40;99.90;;;;;;4133793;28;20022;-76
2021/08/07 07:11:37;;;;;;;10.45;3.83;;;17.60;99.90;;;;;;4139098;28;20463;-76
2021/08/07 07:13:37;;;;;;;8.48;3.95;;;17.70;99.90;;;;;;4137387;28;20039;-76
2021/08/07 07:15:38;;;;;;;6.10;4.20;;;17.70;99.90;;;;;;4137426;28;20037;-77
2021/08/07 07:17:39;;;;;;;10.45;3.88;;;17.70;99.90;;;;;;4148654;28;20069;-77
2021/08/07 07:19:40;;;;;;;10.27;3.80;;;17.80;99.90;;;;;;4130697;28;20042;-77
2021/08/07 07:21:42;;;;;;;5.50;3.47;;;17.90;99.90;;;;;;4132106;28;20089;-77
2021/08/07 07:23:42;;;;;;;7.72;3.40;;;18.00;99.90;;;;;;4135983;28;20034;-77
2021/08/07 07:25:43;;;;;;;8.70;3.40;;;18.20;99.90;;;;;;4131839;28;20038;-76
2021/08/07 07:27:44;;;;;;;6.53;3.10;;;18.30;99.90;;;;;;4134539;28;20026;-77
2021/08/07 07:29:45;;;;;;;7.70;4.18;;;18.50;99.90;;;;;;4150050;28;20030;-77
2021/08/07 07:31:46;;;;;;;5.40;3.42;;;18.70;99.90;;;;;;4143106;28;20030;-77
2021/08/07 07:33:46;;;;;;;7.18;2.95;;;18.80;99.90;;;;;;4135727;28;20042;-76
2021/08/07 07:35:47;;;;;;;6.80;2.85;;;19.00;99.90;;;;;;4130694;28;20130;-77
2021/08/07 07:37:47;;;;;;;9.40;3.15;;;19.10;99.90;;;;;;4135032;28;20045;-76
2021/08/07 07:39:48;;;;;;;10.00;3.95;;;19.10;99.90;;;;;;4135949;28;20046;-76
2021/08/07 07:41:49;;;;;;;8.85;3.58;;;19.10;99.90;;;;;;4142031;28;20046;-75
2021/08/07 07:43:50;;;;;;;8.48;3.45;;;19.00;99.90;;;;;;4148317;28;20164;-76
2021/08/07 07:45:52;;;;;;;7.53;3.63;;;18.70;99.90;;;;;;4137909;28;20022;-76
2021/08/07 07:47:52;;;;;;;10.90;4.07;;;18.70;99.90;;;;;;4141282;28;20449;-76
2021/08/07 07:49:53;;;;;;;7.15;3.72;;;18.60;99.90;;;;;;4134541;28;20031;-75
2021/08/07 07:51:54;;;;;;;7.97;3.97;;;18.60;99.90;;;;;;4144910;28;20466;-77
2021/08/07 07:53:56;;;;;;;10.27;4.70;;;18.60;99.90;;;;;;4140205;28;20034;-77
2021/08/07 07:55:56;;;;;;;10.90;4.25;;;18.50;99.90;;;;;;4133845;28;20460;-76
2021/08/07 07:57:59;;;;;;;10.85;5.07;;;18.40;99.90;;;;;;4135066;28;20030;-77
2021/08/07 07:59:59;;;;;;;7.70;4.35;;;18.30;99.90;;;;;;4135318;28;20022;-75
2021/08/07 08:02:02;;;;;;;10.43;4.30;;;18.30;99.90;;;;;;4135061;28;20045;-77
2021/08/07 08:04:03;;;;;;;8.48;4.43;;;18.30;99.90;;;;;;4133763;28;20037;-76
2021/08/07 08:06:05;;;;;;;7.10;4.70;;;18.50;99.90;;;;;;4140214;28;20022;-76
2021/08/07 08:08:06;;;;;;;10.07;4.10;;;18.70;99.90;;;;;;4140618;28;20040;-76
2021/08/07 08:10:07;;;;;;;9.18;3.72;;;18.90;99.90;;;;;;4140130;28;20022;-77
2021/08/07 08:12:08;;;;;;;8.70;4.10;;;19.10;99.90;;;;;;4139543;28;20022;-77
2021/08/07 08:14:08;;;;;;;5.22;3.25;;;19.10;99.90;;;;;;4143408;28;20026;-77
2021/08/07 08:16:09;;;;;;;8.15;3.90;;;19.10;99.90;;;;;;4141552;28;20502;-77
2021/08/07 08:18:11;;;;;;;7.70;3.78;;;19.20;99.90;;;;;;4143462;28;20468;-77
2021/08/07 08:20:13;;;;;;;8.13;3.83;;;19.30;99.90;;;;;;4148927;28;20038;-77
2021/08/07 08:22:13;;;;;;;5.90;3.28;;;19.40;99.90;;;;;;4134508;28;20027;-77
2021/08/07 08:24:14;;;;;;;7.25;2.85;;;19.50;99.90;;;;;;4144143;28;20134;-76
2021/08/07 08:26:15;;;;;;;8.80;3.13;;;19.70;99.90;;;;;;4139001;28;20475;-76
2021/08/07 08:28:16;;;;;;;6.55;2.72;;;20.00;99.90;;;;;;4134968;28;20382;-74
2021/08/07 08:30:17;;;;;;;5.82;2.58;;;20.00;99.90;;;;;;4136244;28;20022;-76
2021/08/07 08:32:18;;;;;;;6.95;2.53;;;20.00;99.90;;;;;;4136655;28;20089;-77
2021/08/07 08:34:19;;;;;;;5.45;2.50;;;20.20;99.90;;;;;;4138741;28;20038;-77
2021/08/07 08:36:20;;;;;;;6.75;2.53;;;20.30;99.90;;;;;;4135126;28;20045;-76
2021/08/07 08:38:21;;;;;;;6.05;2.50;;;20.60;99.90;;;;;;4135616;28;21521;-77
2021/08/07 08:40:23;;;;;;;3.20;2.10;;;20.80;99.90;;;;;;4134728;28;20497;-74
2021/08/07 08:42:25;;;;;;;6.03;2.40;;;21.00;99.90;;;;;;4136064;28;20390;-77
2021/08/07 08:44:26;;;;;;;8.43;3.03;;;21.20;99.90;;;;;;4133071;28;20039;-77
2021/08/07 08:46:27;;;;;;;3.10;2.08;;;21.20;99.90;;;;;;4140650;28;20049;-75
2021/08/07 08:48:30;;;;;;;5.05;2.40;;;21.20;99.90;;;;;;4133947;28;20042;-74
2021/08/07 08:50:31;;;;;;;5.35;2.72;;;21.20;99.90;;;;;;4139232;28;20022;-76
2021/08/07 08:52:32;;;;;;;5.82;2.97;;;21.30;99.90;;;;;;4131632;28;20522;-76
2021/08/07 08:54:33;;;;;;;6.22;2.72;;;21.30;99.90;;;;;;4132056;28;20080;-76
2021/08/07 08:56:34;;;;;;;6.78;2.80;;;21.40;99.90;;;;;;4133789;28;20492;-75
2021/08/07 08:58:36;;;;;;;4.38;2.50;;;21.80;99.90;;;;;;4133259;28;20429;-76
2021/08/07 09:00:36;;;;;;;5.70;2.42;;;21.60;99.90;;;;;;4139500;28;20038;-76
2021/08/07 09:02:38;;;;;;;5.40;2.83;;;21.60;99.90;;;;;;4137621;28;20507;-76
2021/08/07 09:04:39;;;;;;;9.93;2.63;;;21.70;99.90;;;;;;4137007;28;20040;-75
2021/08/07 09:06:39;;;;;;;6.75;3.05;;;21.70;99.90;;;;;;4141316;28;20532;-76
2021/08/07 09:08:57;;;;;;;6.90;3.50;;;21.90;99.90;;;;;;4132464;28;20109;-76
2021/08/07 09:11:19;;;;;;;6.43;2.90;;;22.00;99.90;;;;;;4134723;28;20256;-77
2021/08/07 09:13:22;;;;;;;7.75;3.25;;;22.00;99.90;;;;;;4131217;28;20039;-76
2021/08/07 09:15:27;;;;;;;10.32;6.18;;;21.80;99.90;;;;;;4138304;28;20519;-76
2021/08/07 09:17:27;;;;;;;6.57;3.28;;;21.50;99.90;;;;;;4137589;28;20039;-76
2021/08/07 09:19:45;;;;;;;7.53;3.95;;;21.30;99.90;;;;;;4134994;28;20038;-76
2021/08/07 09:22:11;;;;;;;6.90;4.53;;;21.10;99.90;;;;;;4135124;28;20066;-77
2021/08/07 09:24:12;;;;;;;6.82;3.70;;;21.00;99.90;;;;;;4133187;28;20053;-76
2021/08/07 09:26:17;;;;;;;7.70;3.30;;;20.60;99.90;;;;;;4132006;28;20034;-75
2021/08/07 09:28:17;;;;;;;4.60;2.97;;;20.50;99.90;;;;;;4139385;28;20521;-76
2021/08/07 09:30:18;;;;;;;5.50;3.30;;;20.30;99.90;;;;;;4133298;28;20046;-75
2021/08/07 09:32:18;;;;;;;7.20;3.15;;;20.30;99.90;;;;;;4136706;28;20493;-75
2021/08/07 09:34:20;;;;;;;6.85;3.40;;;20.40;99.90;;;;;;4136051;28;20385;-76
2021/08/07 09:36:48;;;;;;;6.55;2.78;;;20.50;99.90;;;;;;4132449;28;20427;-76
2021/08/07 09:38:48;;;;;;;8.95;3.15;;;20.90;99.90;;;;;;4133709;28;20159;-77
2021/08/07 09:40:58;;;;;;;6.05;3.88;;;21.40;99.90;;;;;;4131735;28;20088;-76
2021/08/07 09:42:58;;;;;;;5.32;3.28;;;22.00;99.90;;;;;;4134504;28;20038;-76
2021/08/07 09:45:08;;;;;;;7.07;3.60;;;22.50;99.90;;;;;;4139076;28;20362;-76
2021/08/07 09:47:15;;;;;;;8.38;3.70;;;23.10;99.90;;;;;;4131966;28;20092;-76
2021/08/07 09:49:16;;;;;;;6.45;3.45;;;23.00;99.90;;;;;;4132401;28;20030;-76
2021/08/07 09:51:23;;;;;;;8.43;3.42;;;22.90;99.90;;;;;;4135602;28;20038;-77
2021/08/07 09:53:30;;;;;;;8.25;3.53;;;23.20;99.90;;;;;;4132575;28;20038;-77
2021/08/07 09:55:31;;;;;;;6.85;3.83;;;23.50;99.90;;;;;;4136047;28;20041;-77
2021/08/07 09:57:32;;;;;;;6.03;3.00;;;23.40;99.90;;;;;;4134927;28;20034;-76
2021/08/07 09:59:45;;;;;;;7.32;4.03;;;23.50;99.90;;;;;;4132415;28;20042;-76
2021/08/07 10:01:47;;;;;;;7.22;3.22;;;23.40;99.90;;;;;;4131615;28;20030;-76
2021/08/07 10:04:03;;;;;;;7.53;3.40;;;22.90;99.90;;;;;;4131540;28;20034;-77
2021/08/07 10:06:22;;;;;;;6.75;3.85;;;22.90;99.90;;;;;;4133070;28;20030;-76
2021/08/07 10:08:22;;;;;;;9.35;4.00;;;23.40;99.90;;;;;;4137563;28;20034;-76
2021/08/07 10:10:23;;;;;;;6.72;3.78;;;23.80;99.90;;;;;;4134091;28;20500;-76
2021/08/07 10:12:24;;;;;;;5.43;3.25;;;23.70;99.90;;;;;;4131376;28;20046;-76
2021/08/07 10:14:25;;;;;;;6.82;3.70;;;23.90;99.90;;;;;;4132350;28;20058;-77
2021/08/07 10:16:28;;;;;;;9.02;3.28;;;24.00;99.90;;;;;;4132757;28;20038;-76
2021/08/07 10:18:31;;;;;;;5.18;3.58;;;23.90;99.90;;;;;;4133881;28;20030;-74
2021/08/07 10:20:35;;;;;;;5.18;3.22;;;23.50;99.90;;;;;;4140524;28;20040;-76
2021/08/07 10:22:35;;;;;;;5.57;3.25;;;23.10;99.90;;;;;;4131312;28;20030;-76
2021/08/07 10:24:38;;;;;;;3.90;3.20;;;22.70;99.90;;;;;;4134199;28;20034;-76
2021/08/07 10:26:41;;;;;;;7.43;3.38;;;22.70;99.90;;;;;;4144197;28;20022;-75
2021/08/07 10:28:45;;;;;;;3.33;3.00;;;22.90;99.90;;;;;;4133249;28;20480;-76
2021/08/07 10:30:46;;;;;;;7.05;3.83;;;23.20;99.90;;;;;;4139163;28;20445;-75
2021/08/07 10:32:47;;;;;;;7.68;3.00;;;23.20;99.90;;;;;;4132082;28;20038;-76